Terminal Aerodrome Forecast
Issued by NWS

Current Version | Previous Version | Text Only | Print | Product List | Glossary On
Versions: 1 2 3 4 5 6 7 8 9 10 11 12 13 14 15 16 17 18 19 20 21 22 23 24 25
000
FTUS45 KREV 020531
TAFCXP
TAF
KCXP 020531Z 0206/0306 VRB03KT P6SM BKN200
     FM022100 08008G14KT P6SM VCTS SCT120CB BKN220
     FM030300 VRB03KT P6SM VCSH BKN120=

USA.gov is the U.S. government's official web portal to all federal, state and local government web resources and services.